createdAt,value
2022-09-10T00:00:23.142Z,336
2022-09-10T00:01:23.139Z,337.41
2022-09-10T00:02:23.138Z,312
2022-09-10T00:03:23.132Z,286.59
2022-09-10T00:04:23.138Z,331.76
2022-09-10T00:05:23.138Z,357.18
2022-09-10T00:06:23.167Z,16.94
2022-09-10T00:07:23.144Z,15.53
2022-09-10T00:08:23.135Z,360
2022-09-10T00:09:23.143Z,11.29
2022-09-10T00:10:23.144Z,344.47
2022-09-10T00:11:23.145Z,35.29
2022-09-10T00:12:23.146Z,35.29
2022-09-10T00:13:23.150Z,336
2022-09-10T00:14:23.153Z,9.88
2022-09-10T00:15:23.144Z,360
2022-09-10T00:16:23.175Z,340.24
2022-09-10T00:17:23.148Z,354.35
2022-09-10T00:18:23.147Z,316.24
2022-09-10T00:19:23.151Z,355.76
2022-09-10T00:20:23.154Z,296.47
2022-09-10T00:21:23.154Z,299.29
2022-09-10T00:22:23.173Z,309.18
2022-09-10T00:23:23.150Z,302.12
2022-09-10T00:24:23.155Z,317.65
2022-09-10T00:25:23.153Z,295.06
2022-09-10T00:26:23.153Z,292.24
2022-09-10T00:27:23.147Z,302.12
2022-09-10T00:28:23.152Z,302.12
2022-09-10T00:29:23.151Z,285.18
2022-09-10T00:30:23.154Z,293.65
2022-09-10T00:31:23.179Z,288
2022-09-10T00:32:23.156Z,297.88
2022-09-10T00:33:23.167Z,300.71
2022-09-10T00:34:23.160Z,302.12
2022-09-10T00:35:23.161Z,290.82
2022-09-10T00:36:23.159Z,282.35
2022-09-10T00:37:23.171Z,288
2022-09-10T00:38:23.185Z,276.71
2022-09-10T00:39:23.162Z,293.65
2022-09-10T00:40:23.174Z,304.94
2022-09-10T00:41:23.172Z,290.82
2022-09-10T00:42:23.164Z,297.88
2022-09-10T00:43:23.162Z,338.82
2022-09-10T00:44:23.172Z,344.47
2022-09-10T00:45:23.198Z,345.88
2022-09-10T00:46:23.170Z,345.88
2022-09-10T00:47:23.166Z,4.24
2022-09-10T00:48:23.162Z,4.24
2022-09-10T00:49:23.168Z,4.24
2022-09-10T00:50:23.167Z,0
2022-09-10T00:51:23.177Z,0
2022-09-10T00:52:23.169Z,5.65
2022-09-10T00:53:23.174Z,5.65
2022-09-10T00:54:23.197Z,7.06
2022-09-10T00:55:23.173Z,4.24
2022-09-10T00:56:23.171Z,5.65
2022-09-10T00:57:23.174Z,4.24
2022-09-10T00:58:23.179Z,2.82
2022-09-10T00:59:23.177Z,4.24
2022-09-10T01:00:23.180Z,5.65
2022-09-10T01:01:23.179Z,2.82
2022-09-10T01:02:23.176Z,2.82
2022-09-10T01:03:25.514Z,2.82
2022-09-10T01:04:23.188Z,2.82
2022-09-10T01:05:23.188Z,4.24
2022-09-10T01:06:23.195Z,5.65
2022-09-10T01:07:23.186Z,7.06
2022-09-10T01:08:23.184Z,5.65
2022-09-10T01:09:23.195Z,4.24
2022-09-10T01:10:23.220Z,4.24
2022-09-10T01:11:23.193Z,5.65
2022-09-10T01:12:23.192Z,5.65
2022-09-10T01:13:23.186Z,8.47
2022-09-10T01:14:23.186Z,8.47
2022-09-10T01:15:23.192Z,8.47
2022-09-10T01:16:23.242Z,8.47
2022-09-10T01:17:23.188Z,8.47
2022-09-10T01:18:23.190Z,8.47
2022-09-10T01:19:23.197Z,8.47
2022-09-10T01:20:23.193Z,8.47
2022-09-10T01:21:23.196Z,1.41
2022-09-10T01:22:23.197Z,0
2022-09-10T01:23:23.198Z,0
2022-09-10T01:24:23.201Z,0
2022-09-10T01:25:23.207Z,1.41
2022-09-10T01:26:23.217Z,358.59
2022-09-10T01:27:23.206Z,1.41
2022-09-10T01:28:23.196Z,9.88
2022-09-10T01:29:23.204Z,11.29
2022-09-10T01:30:23.209Z,11.29
2022-09-10T01:31:23.214Z,11.29
2022-09-10T01:32:23.218Z,11.29
2022-09-10T01:33:23.210Z,11.29
2022-09-10T01:34:23.204Z,11.29
2022-09-10T01:35:23.210Z,11.29
2022-09-10T01:36:23.210Z,11.29
2022-09-10T01:37:23.209Z,11.29
2022-09-10T01:38:23.200Z,11.29
2022-09-10T01:39:23.209Z,11.29
2022-09-10T01:40:23.207Z,11.29
2022-09-10T01:41:23.214Z,11.29
2022-09-10T01:42:23.238Z,11.29
2022-09-10T01:43:23.202Z,11.29
2022-09-10T01:44:23.212Z,11.29
2022-09-10T01:45:23.291Z,11.29
2022-09-10T01:46:23.217Z,11.29
2022-09-10T01:47:23.215Z,11.29
2022-09-10T01:48:23.215Z,11.29
2022-09-10T01:49:23.212Z,11.29
2022-09-10T01:50:23.214Z,26.82
2022-09-10T01:51:23.214Z,8.47
2022-09-10T01:52:23.217Z,9.88
2022-09-10T01:53:23.207Z,1.41
2022-09-10T01:54:23.214Z,2.82
2022-09-10T01:55:23.212Z,2.82
2022-09-10T01:56:23.218Z,1.41
2022-09-10T01:57:23.213Z,1.41
2022-09-10T01:58:23.241Z,12.71
2022-09-10T01:59:23.218Z,345.88
2022-09-10T02:00:23.214Z,4.24
2022-09-10T02:01:23.242Z,22.59
2022-09-10T02:02:23.247Z,330.35
2022-09-10T02:03:23.220Z,327.53
2022-09-10T02:04:23.217Z,0
2022-09-10T02:05:23.217Z,360
2022-09-10T02:06:23.216Z,316.24
2022-09-10T02:07:23.217Z,345.88
2022-09-10T02:08:23.224Z,314.82
2022-09-10T02:09:23.224Z,352.94
2022-09-10T02:10:23.219Z,283.76
2022-09-10T02:11:23.220Z,316.24
2022-09-10T02:12:23.218Z,334.59
2022-09-10T02:13:23.217Z,320.47
2022-09-10T02:14:23.260Z,289.41
2022-09-10T02:15:23.222Z,333.18
2022-09-10T02:16:23.276Z,292.24
2022-09-10T02:17:23.216Z,320.47
2022-09-10T02:18:23.221Z,319.06
2022-09-10T02:19:23.216Z,2.82
2022-09-10T02:20:23.216Z,313.41
2022-09-10T02:21:23.221Z,295.06
2022-09-10T02:22:23.219Z,276.71
2022-09-10T02:23:23.218Z,289.41
2022-09-10T02:24:23.221Z,295.06
2022-09-10T02:25:23.226Z,289.41
2022-09-10T02:26:23.223Z,59.29
2022-09-10T02:27:23.218Z,59.29
2022-09-10T02:28:23.223Z,59.29
2022-09-10T02:29:23.240Z,59.29
2022-09-10T02:30:23.249Z,59.29
2022-09-10T02:31:23.278Z,59.29
2022-09-10T02:32:23.232Z,59.29
2022-09-10T02:33:23.237Z,59.29
2022-09-10T02:34:23.232Z,59.29
2022-09-10T02:35:23.233Z,59.29
2022-09-10T02:36:23.234Z,59.29
2022-09-10T02:37:23.231Z,59.29
2022-09-10T02:38:23.237Z,59.29
2022-09-10T02:39:23.244Z,59.29
2022-09-10T02:40:23.235Z,59.29
2022-09-10T02:41:23.241Z,59.29
2022-09-10T02:42:23.229Z,59.29
2022-09-10T02:43:23.244Z,59.29
2022-09-10T02:44:23.246Z,59.29
2022-09-10T02:45:23.282Z,59.29
2022-09-10T02:46:23.269Z,59.29
2022-09-10T02:47:23.241Z,59.29
2022-09-10T02:48:23.243Z,59.29
2022-09-10T02:49:23.250Z,59.29
2022-09-10T02:50:23.238Z,59.29
2022-09-10T02:51:23.254Z,59.29
2022-09-10T02:52:23.238Z,59.29
2022-09-10T02:53:23.254Z,59.29
2022-09-10T02:54:23.255Z,59.29
2022-09-10T02:55:23.243Z,59.29
2022-09-10T02:56:23.238Z,59.29
2022-09-10T02:57:23.247Z,59.29
2022-09-10T02:58:23.250Z,59.29
2022-09-10T02:59:23.252Z,59.29
2022-09-10T03:00:23.251Z,59.29
2022-09-10T03:01:23.301Z,59.29
2022-09-10T03:02:23.278Z,59.29
2022-09-10T03:03:23.255Z,59.29
2022-09-10T03:04:23.259Z,59.29
2022-09-10T03:05:23.324Z,59.29
2022-09-10T03:06:23.266Z,59.29
2022-09-10T03:07:23.277Z,59.29
2022-09-10T03:08:23.263Z,59.29
2022-09-10T03:09:23.267Z,59.29
2022-09-10T03:10:23.271Z,59.29
2022-09-10T03:11:23.271Z,59.29
2022-09-10T03:12:23.270Z,59.29
2022-09-10T03:13:23.262Z,59.29
2022-09-10T03:14:23.271Z,59.29
2022-09-10T03:15:23.271Z,59.29
2022-09-10T03:16:23.291Z,59.29
2022-09-10T03:17:23.261Z,59.29
2022-09-10T03:18:23.300Z,59.29
2022-09-10T03:19:23.269Z,59.29
2022-09-10T03:20:23.270Z,59.29
2022-09-10T03:21:23.273Z,59.29
2022-09-10T03:22:23.269Z,59.29
2022-09-10T03:23:23.273Z,59.29
2022-09-10T03:24:23.274Z,59.29
2022-09-10T03:25:23.275Z,59.29
2022-09-10T03:26:23.273Z,59.29
2022-09-10T03:27:23.277Z,59.29
2022-09-10T03:28:23.273Z,59.29
2022-09-10T03:29:23.279Z,59.29
2022-09-10T03:30:23.275Z,59.29
2022-09-10T03:31:23.307Z,59.29
2022-09-10T03:32:23.271Z,59.29
2022-09-10T03:33:23.283Z,59.29
2022-09-10T03:34:23.305Z,59.29
2022-09-10T03:35:23.275Z,59.29
2022-09-10T03:36:23.278Z,59.29
2022-09-10T03:37:23.280Z,59.29
2022-09-10T03:38:23.279Z,59.29
2022-09-10T03:39:23.284Z,59.29
2022-09-10T03:40:23.282Z,59.29
2022-09-10T03:41:23.289Z,59.29
2022-09-10T03:42:23.291Z,59.29
2022-09-10T03:43:23.288Z,59.29
2022-09-10T03:44:23.291Z,59.29
2022-09-10T03:45:23.319Z,59.29
2022-09-10T03:46:23.285Z,59.29
2022-09-10T03:47:23.297Z,59.29
2022-09-10T03:48:23.294Z,59.29
2022-09-10T03:49:23.303Z,59.29
2022-09-10T03:50:23.322Z,59.29
2022-09-10T03:51:23.320Z,59.29
2022-09-10T03:52:23.293Z,59.29
2022-09-10T03:53:23.299Z,59.29
2022-09-10T03:54:23.302Z,59.29
2022-09-10T03:55:23.305Z,59.29
2022-09-10T03:56:23.310Z,59.29
2022-09-10T03:57:23.311Z,59.29
2022-09-10T03:58:23.302Z,59.29
2022-09-10T03:59:23.301Z,59.29
2022-09-10T04:00:23.311Z,59.29
2022-09-10T04:01:23.352Z,59.29
2022-09-10T04:02:23.331Z,59.29
2022-09-10T04:03:23.297Z,59.29
2022-09-10T04:04:23.307Z,59.29
2022-09-10T04:05:23.305Z,59.29
2022-09-10T04:06:23.330Z,59.29
2022-09-10T04:07:23.309Z,59.29
2022-09-10T04:08:23.310Z,59.29
2022-09-10T04:09:23.307Z,59.29
2022-09-10T04:10:23.314Z,59.29
2022-09-10T04:11:23.304Z,59.29
2022-09-10T04:12:23.316Z,59.29
2022-09-10T04:13:23.309Z,59.29
2022-09-10T04:14:23.312Z,59.29
2022-09-10T04:15:23.325Z,59.29
2022-09-10T04:16:23.381Z,59.29
2022-09-10T04:17:23.314Z,59.29
2022-09-10T04:18:23.307Z,59.29
2022-09-10T04:19:23.319Z,59.29
2022-09-10T04:20:23.318Z,59.29
2022-09-10T04:21:23.311Z,59.29
2022-09-10T04:22:23.340Z,59.29
2022-09-10T04:23:23.312Z,59.29
2022-09-10T04:24:23.319Z,59.29
2022-09-10T04:25:23.332Z,59.29
2022-09-10T04:26:23.323Z,59.29
2022-09-10T04:27:23.323Z,59.29
2022-09-10T04:28:23.320Z,59.29
2022-09-10T04:29:23.330Z,59.29
2022-09-10T04:30:23.337Z,59.29
2022-09-10T04:31:23.397Z,59.29
2022-09-10T04:32:23.325Z,59.29
2022-09-10T04:33:23.329Z,59.29
2022-09-10T04:34:23.334Z,59.29
2022-09-10T04:35:23.336Z,59.29
2022-09-10T04:36:23.336Z,59.29
2022-09-10T04:37:23.331Z,59.29
2022-09-10T04:38:23.358Z,59.29
2022-09-10T04:39:23.327Z,59.29
2022-09-10T04:40:23.338Z,59.29
2022-09-10T04:41:23.341Z,59.29
2022-09-10T04:42:23.343Z,59.29
2022-09-10T04:43:23.338Z,59.29
2022-09-10T04:44:23.345Z,59.29
2022-09-10T04:45:23.328Z,59.29
2022-09-10T04:46:23.335Z,59.29
2022-09-10T04:47:23.353Z,59.29
2022-09-10T04:48:23.348Z,59.29
2022-09-10T04:49:23.337Z,59.29
2022-09-10T04:50:23.343Z,59.29
2022-09-10T04:51:23.339Z,59.29
2022-09-10T04:52:23.339Z,59.29
2022-09-10T04:53:23.342Z,59.29
2022-09-10T04:54:23.368Z,59.29
2022-09-10T04:55:23.347Z,59.29
2022-09-10T04:56:23.343Z,59.29
2022-09-10T04:57:23.346Z,59.29
2022-09-10T04:58:23.345Z,59.29
2022-09-10T04:59:23.342Z,59.29
2022-09-10T05:00:23.347Z,59.29
2022-09-10T05:01:23.404Z,59.29
2022-09-10T05:02:23.397Z,59.29
2022-09-10T05:03:23.349Z,59.29
2022-09-10T05:04:23.355Z,59.29
2022-09-10T05:05:23.347Z,59.29
2022-09-10T05:06:23.366Z,59.29
2022-09-10T05:07:23.350Z,59.29
2022-09-10T05:08:23.350Z,59.29
2022-09-10T05:09:23.349Z,59.29
2022-09-10T05:10:23.389Z,59.29
2022-09-10T05:11:23.357Z,59.29
2022-09-10T05:12:23.357Z,59.29
2022-09-10T05:13:23.356Z,59.29
2022-09-10T05:14:23.362Z,59.29
2022-09-10T05:15:23.355Z,59.29
2022-09-10T05:16:23.416Z,59.29
2022-09-10T05:17:23.368Z,59.29
2022-09-10T05:18:23.358Z,59.29
2022-09-10T05:19:23.370Z,59.29
2022-09-10T05:20:23.365Z,59.29
2022-09-10T05:21:23.358Z,59.29
2022-09-10T05:22:23.367Z,59.29
2022-09-10T05:23:23.371Z,59.29
2022-09-10T05:24:23.378Z,59.29
2022-09-10T05:25:23.361Z,59.29
2022-09-10T05:26:23.398Z,59.29
2022-09-10T05:27:23.373Z,59.29
2022-09-10T05:28:23.379Z,59.29
2022-09-10T05:29:23.371Z,59.29
2022-09-10T05:30:23.375Z,59.29
2022-09-10T05:31:23.409Z,59.29
2022-09-10T05:32:23.367Z,59.29
2022-09-10T05:33:23.373Z,59.29
2022-09-10T05:34:23.421Z,59.29
2022-09-10T05:35:23.374Z,59.29
2022-09-10T05:36:23.383Z,59.29
2022-09-10T05:37:23.376Z,59.29
2022-09-10T05:38:23.375Z,59.29
2022-09-10T05:39:23.378Z,59.29
2022-09-10T05:40:23.385Z,59.29
2022-09-10T05:41:23.380Z,59.29
2022-09-10T05:42:23.405Z,59.29
2022-09-10T05:43:23.385Z,59.29
2022-09-10T05:44:23.376Z,59.29
2022-09-10T05:45:23.390Z,59.29
2022-09-10T05:46:23.406Z,59.29
2022-09-10T05:47:23.390Z,59.29
2022-09-10T05:48:23.384Z,59.29
2022-09-10T05:49:23.398Z,59.29
2022-09-10T05:50:23.380Z,59.29
2022-09-10T05:51:23.387Z,59.29
2022-09-10T05:52:23.387Z,59.29
2022-09-10T05:53:23.389Z,59.29
2022-09-10T05:54:23.391Z,59.29
2022-09-10T05:55:23.390Z,59.29
2022-09-10T05:56:23.388Z,59.29
2022-09-10T05:57:23.391Z,59.29
2022-09-10T05:58:23.420Z,59.29
2022-09-10T05:59:23.385Z,59.29
2022-09-10T06:00:23.397Z,59.29
2022-09-10T06:01:23.397Z,59.29
2022-09-10T06:02:24.351Z,59.29
2022-09-10T06:03:23.458Z,59.29
2022-09-10T06:04:23.393Z,59.29
2022-09-10T06:05:23.396Z,59.29
2022-09-10T06:06:23.391Z,59.29
2022-09-10T06:07:23.437Z,59.29
2022-09-10T06:08:23.398Z,59.29
2022-09-10T06:09:23.407Z,59.29
2022-09-10T06:10:23.396Z,59.29
2022-09-10T06:11:23.399Z,59.29
2022-09-10T06:12:23.401Z,59.29
2022-09-10T06:13:23.402Z,59.29
2022-09-10T06:14:23.435Z,59.29
2022-09-10T06:15:23.403Z,59.29
2022-09-10T06:16:23.462Z,59.29
2022-09-10T06:17:23.413Z,59.29
2022-09-10T06:18:23.412Z,59.29
2022-09-10T06:19:23.413Z,59.29
2022-09-10T06:20:23.409Z,59.29
2022-09-10T06:21:27.607Z,59.29
2022-09-10T06:22:23.404Z,59.29
2022-09-10T06:23:23.407Z,59.29
2022-09-10T06:24:23.407Z,59.29
2022-09-10T06:25:23.416Z,59.29
2022-09-10T06:26:23.408Z,59.29
2022-09-10T06:27:23.413Z,59.29
2022-09-10T06:28:23.412Z,59.29
2022-09-10T06:29:23.411Z,59.29
2022-09-10T06:30:23.432Z,59.29
2022-09-10T06:31:23.426Z,59.29
2022-09-10T06:32:23.414Z,59.29
2022-09-10T06:33:23.416Z,59.29
2022-09-10T06:34:23.415Z,59.29
2022-09-10T06:35:23.413Z,59.29
2022-09-10T06:36:23.406Z,59.29
2022-09-10T06:37:23.415Z,59.29
2022-09-10T06:38:23.408Z,59.29
2022-09-10T06:39:23.412Z,59.29
2022-09-10T06:40:23.409Z,59.29
2022-09-10T06:41:23.411Z,59.29
2022-09-10T06:42:23.405Z,59.29
2022-09-10T06:43:23.417Z,59.29
2022-09-10T06:44:23.409Z,59.29
2022-09-10T06:45:23.417Z,59.29
2022-09-10T06:48:40.583Z,59.29
2022-09-10T06:49:23.406Z,59.29
2022-09-10T06:50:23.409Z,59.29
2022-09-10T06:51:23.417Z,59.29
2022-09-10T06:52:23.421Z,59.29
2022-09-10T06:53:23.416Z,59.29
2022-09-10T06:54:23.420Z,59.29
2022-09-10T06:55:23.424Z,59.29
2022-09-10T06:56:23.443Z,59.29
2022-09-10T06:57:23.426Z,59.29
2022-09-10T06:58:23.416Z,59.29
2022-09-10T06:59:23.422Z,59.29
2022-09-10T07:00:23.424Z,59.29
2022-09-10T07:01:23.429Z,59.29
2022-09-10T07:02:23.499Z,59.29
2022-09-10T07:03:23.425Z,59.29
2022-09-10T07:04:23.422Z,59.29
2022-09-10T07:05:23.425Z,59.29
2022-09-10T07:06:23.424Z,59.29
2022-09-10T07:07:23.432Z,59.29
2022-09-10T07:08:23.423Z,59.29
2022-09-10T07:09:23.433Z,59.29
2022-09-10T07:10:23.546Z,59.29
2022-09-10T07:11:23.425Z,59.29
2022-09-10T07:12:23.423Z,59.29
2022-09-10T07:13:23.427Z,59.29
2022-09-10T07:14:23.428Z,59.29
2022-09-10T07:15:23.430Z,59.29
2022-09-10T07:16:23.430Z,59.29
2022-09-10T07:17:23.436Z,59.29
2022-09-10T07:18:23.460Z,59.29
2022-09-10T07:19:23.436Z,59.29
2022-09-10T07:20:23.520Z,59.29
2022-09-10T07:21:23.438Z,59.29
2022-09-10T07:22:23.439Z,59.29
2022-09-10T07:23:23.434Z,59.29
2022-09-10T07:24:23.442Z,59.29
2022-09-10T07:25:23.438Z,59.29
2022-09-10T07:26:23.435Z,59.29
2022-09-10T07:27:23.444Z,59.29
2022-09-10T07:28:23.431Z,59.29
2022-09-10T07:29:23.438Z,59.29
2022-09-10T07:30:23.442Z,59.29
2022-09-10T07:31:23.486Z,59.29
2022-09-10T07:32:23.437Z,59.29
2022-09-10T07:33:23.446Z,59.29
2022-09-10T07:34:23.479Z,59.29
2022-09-10T07:35:23.444Z,59.29
2022-09-10T07:36:23.457Z,59.29
2022-09-10T07:37:23.456Z,59.29
2022-09-10T07:38:23.456Z,59.29
2022-09-10T07:39:25.655Z,59.29
2022-09-10T07:40:23.469Z,59.29
2022-09-10T07:41:23.445Z,59.29
2022-09-10T07:42:23.455Z,129.88
2022-09-10T07:43:23.447Z,122.82
2022-09-10T07:44:23.442Z,100.24
2022-09-10T07:45:23.459Z,100.24
2022-09-10T07:46:23.453Z,100.24
2022-09-10T07:47:23.451Z,124.24
2022-09-10T07:48:23.453Z,124.24
2022-09-10T07:49:23.449Z,129.88
2022-09-10T07:50:23.480Z,128.47
2022-09-10T07:51:23.457Z,136.94
2022-09-10T07:52:23.463Z,111.53
2022-09-10T07:53:23.458Z,128.47
2022-09-10T07:54:23.470Z,136.94
2022-09-10T07:55:23.466Z,117.18
2022-09-10T07:56:23.465Z,117.18
2022-09-10T07:57:23.458Z,117.18
2022-09-10T07:58:23.454Z,131.29
2022-09-10T07:59:23.455Z,129.88
2022-09-10T08:00:23.469Z,141.18
2022-09-10T08:01:23.473Z,139.76
2022-09-10T08:02:23.548Z,121.41
2022-09-10T08:03:23.469Z,121.41
2022-09-10T08:04:23.469Z,121.41
2022-09-10T08:05:23.494Z,121.41
2022-09-10T08:06:23.501Z,121.41
2022-09-10T08:07:23.478Z,134.12
2022-09-10T08:08:23.478Z,118.59
2022-09-10T08:09:23.474Z,118.59
2022-09-10T08:10:23.483Z,118.59
2022-09-10T08:11:23.481Z,118.59
2022-09-10T08:12:23.479Z,118.59
2022-09-10T08:13:23.488Z,118.59
2022-09-10T08:14:23.480Z,118.59
2022-09-10T08:15:23.480Z,299.29
2022-09-10T08:16:23.483Z,317.65
2022-09-10T08:17:23.479Z,323.29
2022-09-10T08:18:23.488Z,295.06
2022-09-10T08:19:23.482Z,283.76
2022-09-10T08:20:23.488Z,283.76
2022-09-10T08:21:23.489Z,316.24
2022-09-10T08:22:23.512Z,320.47
2022-09-10T08:23:23.489Z,309.18
2022-09-10T08:24:23.485Z,309.18
2022-09-10T08:25:23.495Z,297.88
2022-09-10T08:26:23.489Z,303.53
2022-09-10T08:27:23.505Z,309.18
2022-09-10T08:28:25.438Z,334.59
2022-09-10T08:29:23.504Z,295.06
2022-09-10T08:30:23.494Z,282.35
2022-09-10T08:31:23.524Z,259.76
2022-09-10T08:32:23.498Z,293.65
2022-09-10T08:33:23.504Z,289.41
2022-09-10T08:34:23.504Z,280.94
2022-09-10T08:35:23.504Z,314.82
2022-09-10T08:36:23.503Z,341.65
2022-09-10T08:37:23.498Z,19.76
2022-09-10T08:38:23.531Z,302.12
2022-09-10T08:39:23.505Z,283.76
2022-09-10T08:40:23.503Z,282.35
2022-09-10T08:41:23.518Z,272.47
2022-09-10T08:42:23.514Z,249.88
2022-09-10T08:43:23.518Z,244.24
2022-09-10T08:44:23.507Z,227.29
2022-09-10T08:45:23.510Z,214.59
2022-09-10T08:46:23.508Z,297.88
2022-09-10T08:47:23.517Z,289.41
2022-09-10T08:48:23.514Z,223.06
2022-09-10T08:49:23.516Z,197.65
2022-09-10T08:50:23.510Z,197.65
2022-09-10T08:51:23.508Z,15.53
2022-09-10T08:52:23.516Z,5.65
2022-09-10T08:53:23.515Z,19.76
2022-09-10T08:54:23.541Z,43.76
2022-09-10T08:55:23.524Z,29.65
2022-09-10T08:56:23.525Z,26.82
2022-09-10T08:57:23.527Z,24
2022-09-10T08:58:23.517Z,40.94
2022-09-10T08:59:23.529Z,40.94
2022-09-10T09:00:23.536Z,18.35
2022-09-10T09:01:23.564Z,14.12
2022-09-10T09:02:45.139Z,16.94
2022-09-10T09:03:23.579Z,288
2022-09-10T09:04:23.528Z,7.06
2022-09-10T09:05:23.530Z,351.53
2022-09-10T09:06:23.525Z,321.88
2022-09-10T09:07:23.532Z,320.47
2022-09-10T09:08:23.529Z,14.12
2022-09-10T09:09:23.528Z,8.47
2022-09-10T09:10:23.553Z,358.59
2022-09-10T09:11:23.529Z,29.65
2022-09-10T09:12:23.530Z,360
2022-09-10T09:13:23.541Z,11.29
2022-09-10T09:14:23.541Z,11.29
2022-09-10T09:15:23.533Z,288
2022-09-10T09:16:23.541Z,297.88
2022-09-10T09:17:23.542Z,360
2022-09-10T09:18:23.549Z,57.88
2022-09-10T09:19:23.550Z,31.06
2022-09-10T09:20:23.541Z,337.41
2022-09-10T09:21:23.550Z,225.88
2022-09-10T09:22:23.544Z,350.12
2022-09-10T09:23:23.560Z,60.71
2022-09-10T09:24:23.554Z,295.06
2022-09-10T09:25:23.543Z,319.06
2022-09-10T09:26:23.577Z,9.88
2022-09-10T09:27:23.554Z,62.12
2022-09-10T09:28:23.558Z,16.94
2022-09-10T09:29:23.557Z,52.24
2022-09-10T09:30:23.543Z,14.12
2022-09-10T09:31:23.594Z,334.59
2022-09-10T09:32:23.558Z,32.47
2022-09-10T09:33:23.558Z,314.82
2022-09-10T09:34:23.559Z,328.94
2022-09-10T09:35:23.555Z,292.24
2022-09-10T09:36:23.570Z,330.35
2022-09-10T09:37:23.561Z,299.29
2022-09-10T09:38:23.563Z,295.06
2022-09-10T09:39:25.561Z,302.12
2022-09-10T09:40:23.556Z,8.47
2022-09-10T09:41:23.555Z,324.71
2022-09-10T09:42:23.590Z,302.12
2022-09-10T09:43:23.561Z,292.24
2022-09-10T09:44:23.567Z,331.76
2022-09-10T09:45:23.563Z,309.18
2022-09-10T09:46:23.570Z,312
2022-09-10T09:47:23.568Z,331.76
2022-09-10T09:48:23.564Z,307.76
2022-09-10T09:49:23.569Z,360
2022-09-10T09:50:23.574Z,337.41
2022-09-10T09:51:23.567Z,330.35
2022-09-10T09:52:23.573Z,331.76
2022-09-10T09:53:23.569Z,25.41
2022-09-10T09:55:23.572Z,360
2022-09-10T09:56:23.573Z,7.06
2022-09-10T09:57:23.579Z,4.24
2022-09-10T09:58:23.602Z,4.24
2022-09-10T09:59:23.578Z,293.65
2022-09-10T10:00:23.582Z,334.59
2022-09-10T10:01:23.677Z,7.06
2022-09-10T10:02:23.659Z,283.76
2022-09-10T10:03:23.579Z,251.29
2022-09-10T10:04:23.583Z,237.18
2022-09-10T10:05:23.586Z,210.35
2022-09-10T10:06:23.583Z,293.65
2022-09-10T10:07:23.590Z,285.18
2022-09-10T10:08:23.582Z,307.76
2022-09-10T10:09:23.589Z,316.24
2022-09-10T10:10:23.586Z,326.12
2022-09-10T10:11:23.578Z,303.53
2022-09-10T10:12:23.587Z,309.18
2022-09-10T10:13:23.603Z,292.24
2022-09-10T10:14:23.611Z,300.71
2022-09-10T10:15:23.588Z,290.82
2022-09-10T10:16:23.586Z,331.76
2022-09-10T10:17:23.598Z,344.47
2022-09-10T10:18:23.596Z,304.94
2022-09-10T10:19:23.590Z,302.12
2022-09-10T10:20:23.596Z,268.24
2022-09-10T10:21:23.593Z,273.88
2022-09-10T10:22:23.596Z,295.06
2022-09-10T10:23:23.932Z,295.06
2022-09-10T10:24:23.599Z,293.65
2022-09-10T10:25:23.599Z,49.41
2022-09-10T10:26:23.594Z,338.82
2022-09-10T10:27:23.595Z,296.47
2022-09-10T10:28:23.599Z,340.24
2022-09-10T10:29:23.603Z,309.18
2022-09-10T10:30:23.642Z,331.76
2022-09-10T10:31:23.679Z,313.41
2022-09-10T10:32:23.596Z,292.24
2022-09-10T10:33:23.604Z,292.24
2022-09-10T10:34:23.603Z,303.53
2022-09-10T10:35:23.608Z,333.18
2022-09-10T10:36:23.598Z,300.71
2022-09-10T10:37:23.608Z,360
2022-09-10T10:38:23.610Z,18.35
2022-09-10T10:39:23.613Z,331.76
2022-09-10T10:40:23.607Z,31.06
2022-09-10T10:41:23.606Z,22.59
2022-09-10T10:42:23.607Z,321.88
2022-09-10T10:43:23.613Z,323.29
2022-09-10T10:44:23.620Z,321.88
2022-09-10T10:45:23.608Z,360
2022-09-10T10:46:23.671Z,352.94
2022-09-10T10:47:23.614Z,331.76
2022-09-10T10:48:23.612Z,312
2022-09-10T10:49:23.614Z,324.71
2022-09-10T10:50:23.616Z,327.53
2022-09-10T10:51:23.610Z,307.76
2022-09-10T10:52:23.610Z,307.76
2022-09-10T10:53:23.616Z,306.35
2022-09-10T10:54:23.618Z,323.29
2022-09-10T10:55:23.614Z,307.76
2022-09-10T10:56:23.617Z,340.24
2022-09-10T10:57:23.608Z,337.41
2022-09-10T10:58:23.617Z,328.94
2022-09-10T10:59:23.617Z,341.65
2022-09-10T11:00:23.618Z,324.71
2022-09-10T11:01:23.707Z,300.71
2022-09-10T11:02:23.689Z,268.24
2022-09-10T11:03:23.617Z,4.24
2022-09-10T11:04:23.621Z,4.24
2022-09-10T11:05:23.614Z,303.53
2022-09-10T11:06:23.616Z,340.24
2022-09-10T11:07:23.618Z,358.59
2022-09-10T11:08:23.614Z,35.29
2022-09-10T11:09:23.619Z,35.29
2022-09-10T11:10:23.612Z,25.41
2022-09-10T11:11:23.620Z,35.29
2022-09-10T11:12:23.623Z,15.53
2022-09-10T11:13:23.612Z,1.41
2022-09-10T11:14:23.622Z,352.94
2022-09-10T11:15:23.623Z,8.47
2022-09-10T11:16:23.613Z,295.06
2022-09-10T11:17:23.620Z,288
2022-09-10T11:18:23.649Z,288
2022-09-10T11:19:23.619Z,288
2022-09-10T11:20:28.755Z,297.88
2022-09-10T11:21:23.621Z,288
2022-09-10T11:22:23.629Z,290.82
2022-09-10T11:23:23.628Z,297.88
2022-09-10T11:24:23.632Z,314.82
2022-09-10T11:25:23.627Z,302.12
2022-09-10T11:26:23.637Z,269.65
2022-09-10T11:27:23.630Z,326.12
2022-09-10T11:28:23.632Z,42.35
2022-09-10T11:29:23.635Z,337.41
2022-09-10T11:30:23.629Z,341.65
2022-09-10T11:31:23.651Z,319.06
2022-09-10T11:32:23.629Z,317.65
2022-09-10T11:33:23.635Z,289.41
2022-09-10T11:34:23.662Z,302.12
2022-09-10T11:35:23.636Z,290.82
2022-09-10T11:36:23.645Z,312
2022-09-10T11:37:23.638Z,345.88
2022-09-10T11:38:23.636Z,300.71
2022-09-10T11:39:23.643Z,330.35
2022-09-10T11:40:23.638Z,351.53
2022-09-10T11:41:23.638Z,314.82
2022-09-10T11:42:23.712Z,328.94
2022-09-10T11:43:23.645Z,303.53
2022-09-10T11:44:23.648Z,343.06
2022-09-10T11:45:23.646Z,319.06
2022-09-10T11:46:23.698Z,299.29
2022-09-10T11:47:23.654Z,314.82
2022-09-10T11:48:23.649Z,317.65
2022-09-10T11:49:23.644Z,320.47
2022-09-10T11:50:23.680Z,299.29
2022-09-10T11:51:23.667Z,319.06
2022-09-10T11:52:23.657Z,43.76
2022-09-10T11:53:23.657Z,306.35
2022-09-10T11:54:23.647Z,360
2022-09-10T11:55:23.651Z,341.65
2022-09-10T11:56:23.666Z,0
2022-09-10T11:57:23.659Z,0
2022-09-10T11:58:23.652Z,8.47
2022-09-10T11:59:23.656Z,5.65
2022-09-10T12:00:23.655Z,350.12
2022-09-10T12:01:23.657Z,360
2022-09-10T12:02:23.713Z,4.24
2022-09-10T12:03:23.689Z,337.41
2022-09-10T12:04:23.660Z,1.41
2022-09-10T12:05:23.660Z,351.53
2022-09-10T12:06:23.683Z,330.35
2022-09-10T12:07:23.671Z,337.41
2022-09-10T12:08:23.669Z,33.88
2022-09-10T12:09:23.659Z,309.18
2022-09-10T12:10:23.664Z,4.24
2022-09-10T12:11:23.667Z,360
2022-09-10T12:12:23.668Z,355.76
2022-09-10T12:13:23.678Z,24
2022-09-10T12:14:23.671Z,300.71
2022-09-10T12:15:23.677Z,288
2022-09-10T12:16:23.673Z,340.24
2022-09-10T12:17:23.674Z,9.88
2022-09-10T12:18:23.676Z,319.06
2022-09-10T12:19:23.692Z,12.71
2022-09-10T12:20:23.670Z,21.18
2022-09-10T12:21:23.676Z,304.94
2022-09-10T12:22:23.698Z,316.24
2022-09-10T12:23:23.681Z,330.35
2022-09-10T12:24:23.680Z,24
2022-09-10T12:25:23.678Z,326.12
2022-09-10T12:26:23.672Z,300.71
2022-09-10T12:27:23.678Z,293.65
2022-09-10T12:28:23.676Z,289.41
2022-09-10T12:29:23.680Z,286.59
2022-09-10T12:30:23.682Z,273.88
2022-09-10T12:31:23.748Z,288
2022-09-10T12:32:23.683Z,283.76
2022-09-10T12:33:23.693Z,288
2022-09-10T12:34:23.689Z,259.76
2022-09-10T12:35:23.692Z,285.18
2022-09-10T12:36:23.684Z,256.94
2022-09-10T12:37:23.697Z,279.53
2022-09-10T12:38:23.712Z,276.71
2022-09-10T12:39:23.691Z,254.12
2022-09-10T12:40:23.688Z,269.65
2022-09-10T12:41:23.695Z,283.76
2022-09-10T12:42:23.702Z,264
2022-09-10T12:43:23.698Z,292.24
2022-09-10T12:44:23.698Z,272.47
2022-09-10T12:45:23.696Z,264
2022-09-10T12:46:23.735Z,295.06
2022-09-10T12:47:23.698Z,276.71
2022-09-10T12:48:26.881Z,295.06
2022-09-10T12:49:23.704Z,8.47
2022-09-10T12:50:23.703Z,360
2022-09-10T12:51:23.707Z,283.76
2022-09-10T12:52:23.706Z,299.29